Time;durP1;ratioP1;P1;durP2;ratioP2;P2;SDS_P1;SDS_P2;PMS_P1;PMS_P2;Temp;Humidity;BMP_temperature;BMP_pressure;BME280_temperature;BME280_humidity;BME280_pressure;Samples;Min_cycle;Max_cycle;Signal;HPM_P1;HPM_P2
2022/03/31 00:00:03;;;;;;;;;;;6.10;75.80;;;;;;8416693;28;19970;-68
2022/03/31 00:04:05;;;;;;;;;;;6.00;75.80;;;;;;8408306;28;19920;-68
2022/03/31 00:08:08;;;;;;;;;;;5.80;77.50;;;;;;8411313;28;19929;-68
2022/03/31 00:12:10;;;;;;;;;;;5.70;77.20;;;;;;8382647;28;19955;-68
2022/03/31 00:16:12;;;;;;;;;;;5.50;77.00;;;;;;8409325;28;19927;-68
2022/03/31 00:34:11;;;;;;;;;;;5.20;79.00;;;;;;8405211;28;20327;-68
2022/03/31 00:38:13;;;;;;;;;;;5.10;79.50;;;;;;8402907;28;19976;-68
2022/03/31 00:42:16;;;;;;;;;;;5.00;79.40;;;;;;8415176;28;19928;-68
2022/03/31 00:46:39;;;;;;;;;;;5.00;79.10;;;;;;8408846;28;19927;-68
2022/03/31 00:50:41;;;;;;;;;;;4.90;79.90;;;;;;8409074;28;19930;-68
2022/03/31 00:54:43;;;;;;;;;;;4.90;79.80;;;;;;8391541;28;19939;-68
2022/03/31 00:58:45;;;;;;;;;;;4.80;79.70;;;;;;8402353;28;19920;-68
2022/03/31 01:02:47;;;;;;;;;;;4.70;80.70;;;;;;8412145;28;19931;-68
2022/03/31 01:06:49;;;;;;;;;;;4.70;81.90;;;;;;8413850;28;19927;-68
2022/03/31 01:10:53;;;;;;;;;;;4.60;81.00;;;;;;8413892;28;19927;-68
2022/03/31 01:15:06;;;;;;;;;;;4.50;81.30;;;;;;8412643;28;19924;-68
2022/03/31 01:19:09;;;;;;;;;;;4.40;82.40;;;;;;8391925;28;19943;-68
2022/03/31 01:23:11;;;;;;;;;;;4.40;82.70;;;;;;8416107;28;19920;-68
2022/03/31 01:27:14;;;;;;;;;;;4.40;81.60;;;;;;8410064;28;20003;-68
2022/03/31 01:31:16;;;;;;;;;;;4.40;82.30;;;;;;8407305;28;19920;-68
2022/03/31 01:35:18;;;;;;;;;;;4.30;82.10;;;;;;8402532;28;19936;-68
2022/03/31 01:39:19;;;;;;;;;;;4.30;83.00;;;;;;8389434;28;19928;-68
2022/03/31 01:43:21;;;;;;;;;;;4.20;83.60;;;;;;8398371;28;19920;-68
2022/03/31 01:47:23;;;;;;;;;;;4.20;83.30;;;;;;8402146;28;20574;-68
2022/03/31 01:51:25;;;;;;;;;;;4.10;83.00;;;;;;8415571;28;19927;-68
2022/03/31 01:55:27;;;;;;;;;;;4.00;83.00;;;;;;8406197;28;20356;-68
2022/03/31 01:59:36;;;;;;;;;;;3.90;83.40;;;;;;8402870;28;19919;-68
2022/03/31 02:03:37;;;;;;;;;;;3.70;83.70;;;;;;8418408;28;19951;-68
2022/03/31 02:07:39;;;;;;;;;;;3.60;84.70;;;;;;8399295;28;19932;-68
2022/03/31 02:11:41;;;;;;;;;;;3.50;83.60;;;;;;8393226;28;19928;-68
2022/03/31 02:15:43;;;;;;;;;;;3.40;83.40;;;;;;8385006;28;19920;-68
2022/03/31 02:19:45;;;;;;;;;;;3.40;83.80;;;;;;8381407;28;19919;-68
2022/03/31 02:23:47;;;;;;;;;;;3.40;85.80;;;;;;8421554;28;20287;-68
2022/03/31 02:27:52;;;;;;;;;;;3.40;84.40;;;;;;8407838;28;20377;-68
2022/03/31 02:31:54;;;;;;;;;;;3.40;84.70;;;;;;8400947;28;19919;-68
2022/03/31 02:35:56;;;;;;;;;;;3.30;85.60;;;;;;8393648;28;20311;-68
2022/03/31 02:39:58;;;;;;;;;;;3.30;85.80;;;;;;8409565;28;19935;-69
2022/03/31 02:43:59;;;;;;;;;;;3.20;86.30;;;;;;8427313;28;19924;-68
2022/03/31 02:48:01;;;;;;;;;;;3.20;85.50;;;;;;8407856;28;19923;-68
2022/03/31 02:52:03;;;;;;;;;;;3.20;85.60;;;;;;8402009;28;19924;-68
2022/03/31 02:56:04;;;;;;;;;;;3.20;85.30;;;;;;8390899;28;20452;-68
2022/03/31 03:00:07;;;;;;;;;;;3.20;86.00;;;;;;8417052;28;19920;-68
2022/03/31 03:04:09;;;;;;;;;;;3.20;85.90;;;;;;8411819;28;20015;-67
2022/03/31 03:08:10;;;;;;;;;;;3.20;87.20;;;;;;8416070;28;19919;-68
2022/03/31 03:12:12;;;;;;;;;;;3.20;86.70;;;;;;8409264;28;19928;-68
2022/03/31 03:16:14;;;;;;;;;;;3.10;88.20;;;;;;8390721;28;19927;-68
2022/03/31 03:20:16;;;;;;;;;;;3.10;87.70;;;;;;8388596;28;19923;-69
2022/03/31 03:24:18;;;;;;;;;;;3.10;88.10;;;;;;8392155;28;19927;-68
2022/03/31 03:28:19;;;;;;;;;;;3.00;87.60;;;;;;8407378;28;20933;-68
2022/03/31 03:32:22;;;;;;;;;;;3.00;87.30;;;;;;8396950;28;20015;-68
2022/03/31 03:36:23;;;;;;;;;;;2.90;87.70;;;;;;8425385;28;19973;-68
2022/03/31 03:40:25;;;;;;;;;;;2.80;87.80;;;;;;8406843;28;20386;-68
2022/03/31 03:44:27;;;;;;;;;;;2.80;88.80;;;;;;8411081;28;20319;-68
2022/03/31 03:48:29;;;;;;;;;;;2.70;88.10;;;;;;8405794;28;19927;-68
2022/03/31 03:52:30;;;;;;;;;;;2.70;89.20;;;;;;8404444;28;19928;-68
2022/03/31 03:56:32;;;;;;;;;;;2.70;88.30;;;;;;8416622;28;19965;-68
2022/03/31 04:00:34;;;;;;;;;;;2.70;88.50;;;;;;8416957;28;19920;-69
2022/03/31 04:04:36;;;;;;;;;;;2.70;90.20;;;;;;8406689;28;20371;-68
2022/03/31 04:08:38;;;;;;;;;;;2.60;89.60;;;;;;8411800;28;19928;-68
2022/03/31 04:12:40;;;;;;;;;;;2.50;89.80;;;;;;8406573;28;19920;-68
2022/03/31 04:16:42;;;;;;;;;;;2.50;90.80;;;;;;8403376;28;19928;-68
2022/03/31 04:20:43;;;;;;;;;;;2.50;90.00;;;;;;8405240;28;19920;-68
2022/03/31 04:24:45;;;;;;;;;;;2.60;90.60;;;;;;8426020;28;20232;-68
2022/03/31 04:28:47;;;;;;;;;;;2.50;90.10;;;;;;8416666;28;20364;-68
2022/03/31 04:32:48;;;;;;;;;;;2.60;90.30;;;;;;8390073;28;20274;-68
2022/03/31 04:36:50;;;;;;;;;;;2.60;90.00;;;;;;8418836;28;19998;-68
2022/03/31 04:40:51;;;;;;;;;;;2.60;90.00;;;;;;8399176;28;19920;-68
2022/03/31 04:44:53;;;;;;;;;;;2.60;90.00;;;;;;8402722;28;19964;-68
2022/03/31 04:48:55;;;;;;;;;;;2.60;89.90;;;;;;8415427;28;20287;-68
2022/03/31 04:52:56;;;;;;;;;;;2.60;89.90;;;;;;8412100;28;20275;-68
2022/03/31 04:56:58;;;;;;;;;;;2.70;90.00;;;;;;8419312;28;20283;-68
2022/03/31 05:01:00;;;;;;;;;;;2.70;90.10;;;;;;8418526;28;19943;-68
2022/03/31 05:05:01;;;;;;;;;;;2.60;90.20;;;;;;8424083;28;19924;-68
2022/03/31 05:09:03;;;;;;;;;;;2.60;90.00;;;;;;8420941;28;19966;-68
2022/03/31 05:13:05;;;;;;;;;;;2.60;90.40;;;;;;8422202;28;19927;-68
2022/03/31 05:17:07;;;;;;;;;;;2.60;90.70;;;;;;8420340;28;19927;-68
2022/03/31 05:21:09;;;;;;;;;;;2.60;90.50;;;;;;8415773;28;19924;-68
2022/03/31 05:25:12;;;;;;;;;;;2.60;90.30;;;;;;8412100;28;20363;-68
2022/03/31 05:29:14;;;;;;;;;;;2.60;90.40;;;;;;8414147;28;19920;-68
2022/03/31 05:33:16;;;;;;;;;;;2.60;90.30;;;;;;8399643;28;19920;-68
2022/03/31 05:37:18;;;;;;;;;;;2.60;90.40;;;;;;8418703;28;20320;-68
2022/03/31 05:41:19;;;;;;;;;;;2.60;90.70;;;;;;8409145;28;20394;-68
2022/03/31 05:45:21;;;;;;;;;;;2.60;90.50;;;;;;8415619;28;19935;-68
2022/03/31 05:49:23;;;;;;;;;;;2.60;90.40;;;;;;8398931;28;19927;-68
2022/03/31 05:53:25;;;;;;;;;;;2.60;90.50;;;;;;8413101;28;19928;-68
2022/03/31 05:57:26;;;;;;;;;;;2.60;90.60;;;;;;8418037;28;19935;-68
2022/03/31 06:01:28;;;;;;;;;;;2.60;90.70;;;;;;8389465;28;19952;-68
2022/03/31 06:05:30;;;;;;;;;;;2.60;91.00;;;;;;8420418;28;19974;-68
2022/03/31 06:09:32;;;;;;;;;;;2.60;91.20;;;;;;8414715;28;19931;-68
2022/03/31 06:13:33;;;;;;;;;;;2.60;91.30;;;;;;8403263;28;19920;-68
2022/03/31 06:17:35;;;;;;;;;;;2.60;91.50;;;;;;8403014;28;19960;-68
2022/03/31 06:21:37;;;;;;;;;;;2.60;91.60;;;;;;8422888;28;20324;-68
2022/03/31 06:25:41;;;;;;;;;;;2.60;91.50;;;;;;8422965;28;19931;-68
2022/03/31 06:29:45;;;;;;;;;;;2.60;91.60;;;;;;8417717;28;19927;-68
2022/03/31 06:33:47;;;;;;;;;;;2.60;91.60;;;;;;8425139;28;19920;-68
2022/03/31 06:37:49;;;;;;;;;;;2.60;92.10;;;;;;8423938;28;19920;-68
2022/03/31 06:41:50;;;;;;;;;;;2.70;91.80;;;;;;8427050;28;19920;-68
2022/03/31 06:45:52;;;;;;;;;;;2.70;92.30;;;;;;8432151;28;19924;-68
2022/03/31 06:49:54;;;;;;;;;;;2.70;93.00;;;;;;8398837;28;19994;-68
2022/03/31 06:53:57;;;;;;;;;;;2.70;92.40;;;;;;8424208;28;19920;-68
2022/03/31 06:58:02;;;;;;;;;;;2.80;92.50;;;;;;8406744;28;19995;-68
2022/03/31 07:02:04;;;;;;;;;;;2.90;92.60;;;;;;8423492;28;19943;-68
2022/03/31 07:06:07;;;;;;;;;;;2.90;92.60;;;;;;8406630;28;19942;-68
2022/03/31 07:10:08;;;;;;;;;;;2.90;92.70;;;;;;8426973;28;20291;-68
2022/03/31 07:14:10;;;;;;;;;;;2.90;92.80;;;;;;8421935;28;19924;-68
2022/03/31 07:18:12;;;;;;;;;;;3.00;92.70;;;;;;8427170;28;19924;-68
2022/03/31 07:22:13;;;;;;;;;;;3.00;93.00;;;;;;8421583;28;19928;-68
2022/03/31 07:26:15;;;;;;;;;;;3.10;93.00;;;;;;8398857;28;19931;-68
2022/03/31 07:30:17;;;;;;;;;;;3.10;93.00;;;;;;8422598;28;20406;-68
2022/03/31 07:34:19;;;;;;;;;;;3.10;93.20;;;;;;8419579;28;19920;-68
2022/03/31 07:43:25;;;;;;;;;;;3.20;93.10;;;;;;8417896;28;19938;-68
2022/03/31 07:47:27;;;;;;;;;;;3.20;93.10;;;;;;8409272;28;19920;-68
2022/03/31 07:51:29;;;;;;;;;;;3.30;93.30;;;;;;8417293;28;19920;-68
2022/03/31 07:55:31;;;;;;;;;;;3.40;93.40;;;;;;8416085;28;19924;-68
2022/03/31 07:59:33;;;;;;;;;;;3.50;93.60;;;;;;8422195;28;19920;-68
2022/03/31 08:03:35;;;;;;;;;;;3.60;94.20;;;;;;8417660;28;20101;-68
2022/03/31 08:07:37;;;;;;;;;;;3.70;94.50;;;;;;8418019;28;19955;-68
2022/03/31 08:11:39;;;;;;;;;;;3.80;94.40;;;;;;8421486;28;19924;-68
2022/03/31 08:15:41;;;;;;;;;;;4.00;94.80;;;;;;8424520;28;19930;-68
2022/03/31 08:19:43;;;;;;;;;;;4.10;95.10;;;;;;8406516;28;20413;-68
2022/03/31 08:23:45;;;;;;;;;;;4.30;95.20;;;;;;8419439;28;19920;-68
2022/03/31 08:27:47;;;;;;;;;;;4.50;95.40;;;;;;8415136;28;19924;-68
2022/03/31 08:31:53;;;;;;;5.50;2.10;;;4.60;95.80;;;;;;8427356;28;20331;-69
2022/03/31 08:35:55;;;;;;;5.05;2.03;;;4.70;96.00;;;;;;8399337;28;20157;-68
2022/03/31 08:39:57;;;;;;;3.67;1.83;;;4.70;96.00;;;;;;8411614;28;20043;-69
2022/03/31 08:44:00;;;;;;;4.45;1.98;;;4.80;96.00;;;;;;8396259;28;20051;-68
2022/03/31 08:48:03;;;;;;;4.25;2.10;;;4.80;96.00;;;;;;8399690;28;20052;-68
2022/03/31 08:52:05;;;;;;;4.20;2.00;;;4.80;96.00;;;;;;8407699;28;20063;-68
2022/03/31 08:56:10;;;;;;;4.53;2.13;;;4.90;96.10;;;;;;8396397;28;20044;-68
2022/03/31 09:00:14;;;;;;;4.65;2.25;;;4.90;96.00;;;;;;8386804;28;20047;-68
2022/03/31 09:04:22;;;;;;;5.13;2.38;;;4.90;96.00;;;;;;8419188;28;20093;-68
2022/03/31 09:08:24;;;;;;;5.05;2.80;;;4.90;96.00;;;;;;8411346;28;20456;-68
2022/03/31 09:12:38;;;;;;;5.20;2.80;;;5.00;96.00;;;;;;8396123;28;20048;-68
2022/03/31 09:17:11;;;;;;;;;;;5.10;96.40;;;;;;8404048;28;19939;-68
2022/03/31 09:21:12;;;;;;;;;;;5.10;96.60;;;;;;8418372;28;20016;-68
2022/03/31 09:25:24;;;;;;;;;;;5.20;97.10;;;;;;8427595;28;19932;-68
2022/03/31 09:29:27;;;;;;;;;;;5.20;96.90;;;;;;8414441;28;19929;-68
2022/03/31 09:33:30;;;;;;;;;;;5.30;96.90;;;;;;8421187;28;20213;-68
2022/03/31 09:37:32;;;;;;;;;;;5.40;97.00;;;;;;8422259;28;20351;-68
2022/03/31 09:41:34;;;;;;;;;;;5.50;97.20;;;;;;8426808;28;19932;-69
2022/03/31 09:45:39;;;;;;;;;;;5.60;97.30;;;;;;8429575;28;19939;-68
2022/03/31 09:49:51;;;;;;;;;;;5.60;97.20;;;;;;8408847;28;19924;-68
2022/03/31 09:53:53;;;;;;;;;;;5.70;97.50;;;;;;8420250;28;20383;-68
2022/03/31 09:57:56;;;;;;;;;;;5.70;97.50;;;;;;8425634;28;19931;-68
2022/03/31 10:01:58;;;;;;;;;;;5.70;97.20;;;;;;8424051;28;20279;-68
2022/03/31 10:06:01;;;;;;;;;;;5.60;97.10;;;;;;8407156;28;20394;-68
2022/03/31 10:10:03;;;;;;;;;;;5.60;97.00;;;;;;8426434;28;19928;-68
2022/03/31 10:14:10;;;;;;;;;;;5.60;97.00;;;;;;8428594;28;19924;-68
2022/03/31 10:18:18;;;;;;;;;;;5.60;97.00;;;;;;8426174;28;19932;-68
2022/03/31 10:26:44;;;;;;;;;;;5.50;96.80;;;;;;8422050;28;20272;-68
2022/03/31 10:30:55;;;;;;;;;;;5.50;96.90;;;;;;8423791;28;19997;-68
2022/03/31 10:34:57;;;;;;;;;;;5.60;97.10;;;;;;8430541;28;19924;-68
2022/03/31 10:39:03;;;;;;;;;;;5.60;97.20;;;;;;8405876;28;19935;-68
2022/03/31 10:43:05;;;;;;;;;;;5.60;97.30;;;;;;8426472;28;19928;-68
2022/03/31 10:47:09;;;;;;;;;;;5.70;97.40;;;;;;8426702;28;19978;-68
2022/03/31 10:51:11;;;;;;;;;;;5.70;97.60;;;;;;8420059;28;19940;-69
2022/03/31 10:55:14;;;;;;;;;;;5.80;97.80;;;;;;8405755;28;20605;-68
2022/03/31 10:59:17;;;;;;;;;;;5.90;98.10;;;;;;8425261;28;19932;-68
2022/03/31 11:03:19;;;;;;;;;;;6.00;98.40;;;;;;8414948;28;19951;-68
2022/03/31 11:07:22;;;;;;;;;;;6.10;98.70;;;;;;8419914;28;19986;-68
2022/03/31 11:11:25;;;;;;;;;;;6.20;99.10;;;;;;8422338;28;19924;-68
2022/03/31 11:15:28;;;;;;;;;;;6.30;99.20;;;;;;8423948;28;19962;-68
2022/03/31 11:19:36;;;;;;;;;;;6.30;99.40;;;;;;8402299;28;20404;-68
2022/03/31 11:23:44;;;;;;;;;;;6.40;99.50;;;;;;8419142;28;20224;-68
2022/03/31 11:27:47;;;;;;;;;;;6.40;99.50;;;;;;8422061;28;19950;-68
2022/03/31 11:31:50;;;;;;;;;;;6.40;99.60;;;;;;8407873;28;19935;-68
2022/03/31 11:35:56;;;;;;;;;;;6.30;99.40;;;;;;8420786;28;20030;-68
2022/03/31 11:39:58;;;;;;;;;;;6.30;99.60;;;;;;8398355;28;19924;-68
2022/03/31 11:43:59;;;;;;;;;;;6.40;99.80;;;;;;8421957;28;19924;-68
2022/03/31 11:48:15;;;;;;;;;;;6.40;99.90;;;;;;8424576;28;19924;-68
2022/03/31 11:52:16;;;;;;;5.15;2.90;;;6.60;99.90;;;;;;8413828;28;19929;-68
2022/03/31 11:56:22;;;;;;;4.95;2.85;;;6.80;99.90;;;;;;8422622;28;20044;-68
2022/03/31 12:00:27;;;;;;;4.80;2.72;;;6.90;99.90;;;;;;8417003;28;20052;-68
2022/03/31 12:04:31;;;;;;;5.57;3.05;;;7.00;99.90;;;;;;8420672;28;20052;-68
2022/03/31 12:08:34;;;;;;;4.60;2.70;;;7.00;99.90;;;;;;8415851;28;20047;-68
2022/03/31 12:12:35;;;;;;;5.20;2.45;;;7.00;99.90;;;;;;8416374;28;20043;-68
2022/03/31 12:16:49;;;;;;;5.30;2.42;;;7.00;99.90;;;;;;8399698;28;20056;-68
2022/03/31 12:20:58;;;;;;;;;;;7.10;99.90;;;;;;8411530;28;20044;-68
2022/03/31 12:24:59;;;;;;;;;;;7.20;99.90;;;;;;8398978;28;19924;-68
2022/03/31 12:29:02;;;;;;;;;;;7.10;99.90;;;;;;8427004;28;19927;-69
2022/03/31 12:33:03;;;;;;;;;;;6.90;99.90;;;;;;8407398;28;20407;-68
2022/03/31 12:37:06;;;;;;;;;;;6.70;99.90;;;;;;8405586;28;20244;-68
2022/03/31 12:41:13;;;;;;;;;;;6.60;99.90;;;;;;8396367;28;19920;-68
2022/03/31 12:45:19;;;;;;;;;;;6.40;99.90;;;;;;8419407;28;19921;-68
2022/03/31 12:49:22;;;;;;;;;;;6.30;99.90;;;;;;8423008;28;19927;-68
2022/03/31 12:53:26;;;;;;;;;;;6.20;99.90;;;;;;8391112;28;19923;-68
2022/03/31 12:57:28;;;;;;;;;;;6.20;99.90;;;;;;8416559;28;19927;-68
2022/03/31 13:01:29;;;;;;;;;;;6.10;99.90;;;;;;8419663;28;19920;-68
2022/03/31 13:05:32;;;;;;;;;;;6.10;99.90;;;;;;8418083;28;19969;-68
2022/03/31 13:09:33;;;;;;;;;;;6.10;99.90;;;;;;8419174;28;19931;-68
2022/03/31 13:13:35;;;;;;;;;;;6.20;99.90;;;;;;8402308;28;19920;-68
2022/03/31 13:17:50;;;;;;;;;;;6.10;99.90;;;;;;8403446;28;19920;-68
2022/03/31 13:21:53;;;;;;;;;;;6.10;99.90;;;;;;8421938;28;19920;-68
2022/03/31 13:25:55;;;;;;;;;;;6.10;99.90;;;;;;8416397;28;20003;-68
2022/03/31 13:29:57;;;;;;;;;;;6.10;99.90;;;;;;8395824;28;19927;-68
2022/03/31 13:33:59;;;;;;;;;;;6.10;99.90;;;;;;8403321;28;19928;-68
2022/03/31 13:38:01;;;;;;;;;;;6.20;99.90;;;;;;8417745;28;20307;-68
2022/03/31 13:42:03;;;;;;;;;;;6.20;99.90;;;;;;8420450;28;20386;-68
2022/03/31 13:46:09;;;;;;;;;;;6.30;99.90;;;;;;8398252;28;19935;-68
2022/03/31 13:50:11;;;;;;;;;;;6.30;99.90;;;;;;8412274;28;19940;-68
2022/03/31 13:54:18;;;;;;;;;;;6.30;99.90;;;;;;8416995;28;20289;-68
2022/03/31 14:02:40;;;;;;;;;;;6.10;99.90;;;;;;8419934;28;19935;-68
2022/03/31 14:06:42;;;;;;;;;;;6.00;99.90;;;;;;8419394;28;19935;-68
2022/03/31 14:10:44;;;;;;;;;;;5.90;99.90;;;;;;8421362;28;19932;-68
2022/03/31 14:14:46;;;;;;;;;;;5.90;99.90;;;;;;8422018;28;20299;-68
2022/03/31 14:18:48;;;;;;;;;;;5.90;99.90;;;;;;8413775;28;20395;-68
2022/03/31 14:22:50;;;;;;;;;;;5.90;99.90;;;;;;8399023;28;19924;-68
2022/03/31 14:26:51;;;;;;;;;;;5.90;99.90;;;;;;8406760;28;19932;-68
2022/03/31 14:30:53;;;;;;;;;;;6.00;99.90;;;;;;8403124;28;19943;-68
2022/03/31 14:35:01;;;;;;;;;;;6.00;99.90;;;;;;8403799;28;19978;-68
2022/03/31 14:39:04;;;;;;;;;;;6.00;99.90;;;;;;8388652;28;19932;-68
2022/03/31 14:43:07;;;;;;;;;;;6.00;99.90;;;;;;8371607;28;20371;-68
2022/03/31 14:47:08;;;;;;;;;;;6.00;99.90;;;;;;8387204;28;19951;-68
2022/03/31 14:51:10;;;;;;;;;;;6.00;99.90;;;;;;8392173;28;19928;-68
2022/03/31 14:55:12;;;;;;;;;;;5.90;99.90;;;;;;8401473;28;19928;-68
2022/03/31 14:59:15;;;;;;;;;;;5.80;99.90;;;;;;8390617;28;19936;-68
2022/03/31 15:03:16;;;;;;;;;;;5.80;99.90;;;;;;8387207;28;19931;-68
2022/03/31 15:07:20;;;;;;;;;;;5.90;99.90;;;;;;8371793;28;19925;-68
2022/03/31 15:15:42;;;;;;;;;;;5.90;99.90;;;;;;8386982;28;20079;-68
2022/03/31 15:19:44;;;;;;;;;;;6.00;99.90;;;;;;8371004;28;19938;-68
2022/03/31 15:23:46;;;;;;;;;;;6.00;99.90;;;;;;8389779;28;20299;-68
2022/03/31 15:27:47;;;;;;;;;;;6.00;99.90;;;;;;8388104;28;19975;-68
2022/03/31 15:31:49;;;;;;;;;;;5.80;99.90;;;;;;8389303;28;20380;-68
2022/03/31 15:35:53;;;;;;;;;;;5.80;99.90;;;;;;8392206;28;19929;-68
2022/03/31 15:39:55;;;;;;;;;;;5.70;99.90;;;;;;8393565;28;19939;-68
2022/03/31 15:43:57;;;;;;;;;;;5.70;99.90;;;;;;8396492;28;20450;-68
2022/03/31 15:48:01;;;;;;;;;;;5.60;99.90;;;;;;8384065;28;20279;-68
2022/03/31 15:52:03;;;;;;;;;;;5.60;99.90;;;;;;8393115;28;20430;-68
2022/03/31 15:56:05;;;;;;;;;;;5.50;99.90;;;;;;8387220;28;19928;-68
2022/03/31 16:00:09;;;;;;;;;;;5.50;99.90;;;;;;8415540;28;19924;-68
2022/03/31 16:04:11;;;;;;;;;;;5.40;99.90;;;;;;8386137;28;19924;-68
2022/03/31 16:08:14;;;;;;;;;;;5.30;99.90;;;;;;8403793;28;20456;-68
2022/03/31 16:12:16;;;;;;;;;;;5.20;99.90;;;;;;8413555;28;19932;-68
2022/03/31 16:16:18;;;;;;;;;;;5.30;99.90;;;;;;8402963;28;19928;-68
2022/03/31 16:20:20;;;;;;;;;;;5.30;99.90;;;;;;8385370;28;19953;-68
2022/03/31 16:24:21;;;;;;;;;;;5.40;99.90;;;;;;8418386;28;20425;-68
2022/03/31 16:28:24;;;;;;;;;;;5.30;99.90;;;;;;8402949;28;20042;-68
2022/03/31 16:32:26;;;;;;;;;;;5.30;99.90;;;;;;8386625;28;19939;-68
2022/03/31 16:36:28;;;;;;;;;;;5.30;99.90;;;;;;8403970;28;19932;-69
2022/03/31 16:40:29;;;;;;;;;;;5.30;99.90;;;;;;8402071;28;19929;-70
2022/03/31 16:44:31;;;;;;;;;;;5.40;99.90;;;;;;8403319;28;20406;-70
2022/03/31 16:48:33;;;;;;;;;;;5.40;99.90;;;;;;8380312;28;19925;-69
2022/03/31 16:52:34;;;;;;;;;;;5.30;99.90;;;;;;8402307;28;20295;-70
2022/03/31 16:56:36;;;;;;;;;;;5.20;99.90;;;;;;8403975;28;19928;-70
2022/03/31 17:00:38;;;;;;;;;;;5.20;99.90;;;;;;8403883;28;19927;-70
2022/03/31 17:04:40;;;;;;;;;;;5.10;99.90;;;;;;8405764;28;20040;-70
2022/03/31 17:08:42;;;;;;;;;;;5.00;99.90;;;;;;8415725;28;19924;-70
2022/03/31 17:12:50;;;;;;;;;;;5.00;99.90;;;;;;8381045;28;19947;-70
2022/03/31 17:16:52;;;;;;;;;;;4.90;99.90;;;;;;8411362;28;19928;-70
2022/03/31 17:20:53;;;;;;;;;;;4.90;99.90;;;;;;8397060;28;20068;-70
2022/03/31 17:24:55;;;;;;;;;;;4.80;99.90;;;;;;8396977;28;20343;-70
2022/03/31 17:28:58;;;;;;;;;;;4.70;99.90;;;;;;8396805;28;20406;-70
2022/03/31 17:33:00;;;;;;;;;;;4.70;99.90;;;;;;8400938;28;20383;-70
2022/03/31 17:37:02;;;;;;;;;;;4.60;99.90;;;;;;8399897;28;20396;-70
2022/03/31 17:41:04;;;;;;;;;;;4.60;99.90;;;;;;8400843;28;19944;-69
2022/03/31 17:45:10;;;;;;;;;;;4.50;99.90;;;;;;8399094;28;20019;-69
2022/03/31 17:49:12;;;;;;;;;;;4.50;99.90;;;;;;8393634;28;19924;-70
2022/03/31 17:53:14;;;;;;;;;;;4.40;99.90;;;;;;8381198;28;19945;-69
2022/03/31 17:57:17;;;;;;;;;;;4.40;99.90;;;;;;8395510;28;20458;-69
2022/03/31 18:01:18;;;;;;;;;;;4.40;99.90;;;;;;8399509;28;19936;-69
2022/03/31 18:05:23;;;;;;;;;;;4.40;99.90;;;;;;8404531;28;19924;-69
2022/03/31 18:09:25;;;;;;;;;;;4.30;99.90;;;;;;8395944;28;19924;-70
2022/03/31 18:13:26;;;;;;;;;;;4.30;99.90;;;;;;8403852;28;19935;-69
2022/03/31 18:17:28;;;;;;;;;;;4.20;99.90;;;;;;8407423;28;19931;-70
2022/03/31 18:21:30;;;;;;;;;;;4.20;99.90;;;;;;8418920;28;19924;-70
2022/03/31 18:25:33;;;;;;;;;;;4.10;99.90;;;;;;8404523;28;19924;-69
2022/03/31 18:34:12;;;;;;;;;;;4.00;99.90;;;;;;8361486;28;20372;-69
2022/03/31 18:38:16;;;;;;;;;;;4.00;99.90;;;;;;8401071;28;20387;-69
2022/03/31 18:42:18;;;;;;;;;;;3.90;99.90;;;;;;8381940;28;20343;-69
2022/03/31 18:46:20;;;;;;;;;;;3.80;99.90;;;;;;8379169;28;20391;-69
2022/03/31 18:50:22;;;;;;;;;;;3.70;99.90;;;;;;8376042;28;19925;-69
2022/03/31 18:54:24;;;;;;;;;;;3.60;99.90;;;;;;8390876;28;19943;-69
2022/03/31 18:58:27;;;;;;;;;;;3.40;99.90;;;;;;8391912;28;19932;-69
2022/03/31 19:02:28;;;;;;;;;;;3.30;99.90;;;;;;8393259;28;19933;-69
2022/03/31 19:10:51;;;;;;;;;;;3.10;99.90;;;;;;8392774;28;19931;-69
2022/03/31 19:14:53;;;;;;;;;;;3.00;99.90;;;;;;8391792;28;19939;-69
2022/03/31 19:19:00;;;;;;;;;;;2.90;99.90;;;;;;8392995;28;19924;-69
2022/03/31 19:23:03;;;;;;;;;;;2.80;99.90;;;;;;8388389;28;20249;-69
2022/03/31 19:27:05;;;;;;;;;;;2.80;99.90;;;;;;8391016;28;19931;-69
2022/03/31 19:31:06;;;;;;;;;;;2.80;99.90;;;;;;8391591;28;19928;-69
2022/03/31 19:35:08;;;;;;;;;;;2.70;99.90;;;;;;8391592;28;19970;-69
2022/03/31 19:39:10;;;;;;;;;;;2.70;99.90;;;;;;8388257;28;20016;-69
2022/03/31 19:43:12;;;;;;;;;;;2.70;99.90;;;;;;8374196;28;19924;-69
2022/03/31 19:47:14;;;;;;;;;;;2.70;99.90;;;;;;8389349;28;20321;-69
2022/03/31 19:51:15;;;;;;;;;;;2.70;99.90;;;;;;8374156;28;19935;-69
2022/03/31 19:55:17;;;;;;;;;;;2.70;99.90;;;;;;8388764;28;20297;-69
2022/03/31 19:59:19;;;;;;;;;;;2.80;99.90;;;;;;8372212;28;20418;-69
2022/03/31 20:03:24;;;;;;;;;;;2.80;99.90;;;;;;8391240;28;20063;-69
2022/03/31 20:07:26;;;;;;;;;;;2.80;99.90;;;;;;8377693;28;20260;-69
2022/03/31 20:11:28;;;;;;;;;;;2.80;99.90;;;;;;8388727;28;19924;-69
2022/03/31 20:15:30;;;;;;;;;;;2.80;99.90;;;;;;8387644;28;20030;-69
2022/03/31 20:19:33;;;;;;;;;;;2.90;99.90;;;;;;8390233;28;19929;-69
2022/03/31 20:23:34;;;;;;;;;;;2.90;99.90;;;;;;8388866;28;20391;-69
2022/03/31 20:27:36;;;;;;;;;;;2.90;99.90;;;;;;8391608;28;20341;-69
2022/03/31 20:31:38;;;;;;;;;;;2.90;99.90;;;;;;8374074;28;20418;-69
2022/03/31 20:35:40;;;;;;;;;;;3.00;99.90;;;;;;8370998;28;20276;-69
2022/03/31 20:39:42;;;;;;;;;;;3.00;99.90;;;;;;8386245;28;20329;-69
2022/03/31 20:43:45;;;;;;;;;;;3.00;99.90;;;;;;8390454;28;20264;-69
2022/03/31 20:47:47;;;;;;;;;;;3.00;99.90;;;;;;8387332;28;19928;-69
2022/03/31 20:51:48;;;;;;;;;;;3.00;99.90;;;;;;8392188;28;19947;-68
2022/03/31 20:55:50;;;;;;;;;;;2.90;99.90;;;;;;8393559;28;20509;-69
2022/03/31 20:59:55;;;;;;;;;;;2.90;99.90;;;;;;8389087;28;19939;-69
2022/03/31 21:03:56;;;;;;;;;;;2.80;99.90;;;;;;8405505;28;20321;-68
2022/03/31 21:07:59;;;;;;;;;;;2.80;99.90;;;;;;8403933;28;19931;-69
2022/03/31 21:12:01;;;;;;;;;;;2.80;99.90;;;;;;8384631;28;19924;-68
2022/03/31 21:16:02;;;;;;;;;;;2.70;99.90;;;;;;8407863;28;19924;-68
2022/03/31 21:20:04;;;;;;;;;;;2.70;99.90;;;;;;8402929;28;19924;-69
2022/03/31 21:24:06;;;;;;;;;;;2.60;99.90;;;;;;8401029;28;19924;-68
2022/03/31 21:28:08;;;;;;;;;;;2.60;99.90;;;;;;8409854;28;19969;-68
2022/03/31 21:32:10;;;;;;;;;;;2.50;99.90;;;;;;8397743;28;20355;-68
2022/03/31 21:36:12;;;;;;;;;;;2.50;99.90;;;;;;8417820;28;20577;-68
2022/03/31 21:40:14;;;;;;;;;;;2.50;99.90;;;;;;8414367;28;19940;-68
2022/03/31 21:44:16;;;;;;;;;;;2.40;99.90;;;;;;8412455;28;20296;-68
2022/03/31 21:48:17;;;;;;;;;;;2.40;99.90;;;;;;8417715;28;19928;-68
2022/03/31 21:52:19;;;;;;;;;;;2.30;99.90;;;;;;8420490;28;20256;-69
2022/03/31 21:56:21;;;;;;;;;;;2.20;99.90;;;;;;8417081;28;20427;-68
2022/03/31 22:00:38;;;;;;;;;;;2.20;99.90;;;;;;8420447;28;19924;-68
2022/03/31 22:04:40;;;;;;;;;;;2.10;99.90;;;;;;8410892;28;19932;-68
2022/03/31 22:13:02;;;;;;;;;;;2.10;99.90;;;;;;8407111;28;19924;-68
2022/03/31 22:17:06;;;;;;;;;;;2.00;99.90;;;;;;8415303;28;20264;-68
2022/03/31 22:21:08;;;;;;;;;;;2.00;99.90;;;;;;8412224;28;19928;-68
2022/03/31 22:25:09;;;;;;;;;;;2.00;99.90;;;;;;8416053;28;20394;-68
2022/03/31 22:29:12;;;;;;;;;;;2.00;99.90;;;;;;8409746;28;19951;-68
2022/03/31 22:33:14;;;;;;;;;;;2.00;99.90;;;;;;8396521;28;19951;-68
2022/03/31 22:37:15;;;;;;;;;;;2.00;99.90;;;;;;8398668;28;19924;-68
2022/03/31 22:41:17;;;;;;;;;;;2.00;99.90;;;;;;8415708;28;19928;-68
2022/03/31 22:45:20;;;;;;;;;;;2.00;99.90;;;;;;8418551;28;19977;-68
2022/03/31 22:49:22;;;;;;;;;;;2.00;99.90;;;;;;8419671;28;19936;-68
2022/03/31 22:53:24;;;;;;;;;;;1.90;99.90;;;;;;8404155;28;19924;-68
2022/03/31 22:57:25;;;;;;;;;;;1.90;99.90;;;;;;8422322;28;19931;-68
2022/03/31 23:01:27;;;;;;;;;;;1.90;99.90;;;;;;8422564;28;19928;-68
2022/03/31 23:05:29;;;;;;;;;;;1.90;99.90;;;;;;8404830;28;19951;-68
2022/03/31 23:09:31;;;;;;;;;;;1.90;99.90;;;;;;8417637;28;19943;-68
2022/03/31 23:13:33;;;;;;;;;;;1.90;99.90;;;;;;8402197;28;19931;-68
2022/03/31 23:17:34;;;;;;;;;;;1.90;99.90;;;;;;8421052;28;19928;-68
2022/03/31 23:21:36;;;;;;;;;;;1.90;99.90;;;;;;8417260;28;19934;-68
2022/03/31 23:25:38;;;;;;;;;;;1.80;99.90;;;;;;8414649;28;19932;-68
2022/03/31 23:29:41;;;;;;;;;;;1.80;99.90;;;;;;8425118;28;19924;-68
2022/03/31 23:33:45;;;;;;;;;;;1.80;99.90;;;;;;8416242;28;19946;-68
2022/03/31 23:37:47;;;;;;;;;;;1.80;99.90;;;;;;8413559;28;19924;-68
2022/03/31 23:41:50;;;;;;;;;;;1.80;99.90;;;;;;8424053;28;20367;-68
2022/03/31 23:45:54;;;;;;;;;;;1.80;99.90;;;;;;8425851;28;20359;-68
2022/03/31 23:49:56;;;;;;;;;;;1.70;99.90;;;;;;8414973;28;19928;-68
2022/03/31 23:53:57;;;;;;;;;;;1.70;99.90;;;;;;8412165;28;19935;-68
2022/03/31 23:57:59;;;;;;;;;;;1.70;99.90;;;;;;8422533;28;19939;-68
